Time;durP1;ratioP1;P1;durP2;ratioP2;P2;SDS_P1;SDS_P2;PMS_P1;PMS_P2;Temp;Humidity;BMP_temperature;BMP_pressure;BME280_temperature;BME280_humidity;BME280_pressure;Samples;Min_cycle;Max_cycle;Signal;HPM_P1;HPM_P2
2021/09/13 00:01:43;;;;;;;3.30;3.00;;;16.80;76.30;;;;;;4963386;28;20487;-41
2021/09/13 00:04:10;;;;;;;4.00;3.17;;;16.80;76.30;;;;;;4948883;28;20581;-41
2021/09/13 00:06:37;;;;;;;4.47;3.40;;;16.80;76.30;;;;;;4950503;28;20459;-41
2021/09/13 00:09:04;;;;;;;3.53;3.23;;;16.70;76.40;;;;;;4953288;28;20573;-41
2021/09/13 00:11:30;;;;;;;4.03;3.50;;;16.70;76.40;;;;;;4948985;28;20466;-41
2021/09/13 00:13:57;;;;;;;6.30;3.97;;;16.70;76.50;;;;;;4949045;29;21002;-42
2021/09/13 00:16:24;;;;;;;4.20;3.30;;;16.60;76.50;;;;;;4949262;29;20848;-41
2021/09/13 00:18:51;;;;;;;7.43;3.67;;;16.60;76.70;;;;;;4945279;28;20459;-41
2021/09/13 00:21:17;;;;;;;4.57;3.90;;;16.50;76.70;;;;;;4932246;29;20839;-41
2021/09/13 00:23:44;;;;;;;4.83;4.10;;;16.60;76.70;;;;;;4946916;28;20522;-42
2021/09/13 00:26:11;;;;;;;3.77;3.47;;;16.50;76.70;;;;;;4946294;28;20485;-41
2021/09/13 00:28:38;;;;;;;5.80;3.10;;;16.50;76.80;;;;;;4952630;28;20485;-42
2021/09/13 00:31:04;;;;;;;4.53;3.70;;;16.40;76.90;;;;;;4947820;28;20965;-41
2021/09/13 00:33:31;;;;;;;4.20;3.70;;;16.40;76.90;;;;;;4948869;28;20478;-41
2021/09/13 00:35:58;;;;;;;4.00;3.50;;;16.40;77.00;;;;;;4950061;28;20459;-41
2021/09/13 00:38:25;;;;;;;5.30;3.80;;;16.40;76.90;;;;;;4948478;28;20460;-41
2021/09/13 00:40:52;;;;;;;4.70;3.70;;;16.30;77.10;;;;;;4947659;28;20459;-41
2021/09/13 00:43:18;;;;;;;4.20;3.60;;;16.30;77.20;;;;;;4949478;28;20455;-41
2021/09/13 00:45:45;;;;;;;3.63;3.30;;;16.30;77.20;;;;;;4945924;28;20458;-41
2021/09/13 00:48:12;;;;;;;4.00;3.70;;;16.30;77.20;;;;;;4949217;28;20456;-41
2021/09/13 00:50:39;;;;;;;3.80;3.40;;;16.20;77.40;;;;;;4941255;29;20448;-41
2021/09/13 00:53:06;;;;;;;4.30;3.40;;;16.20;77.40;;;;;;4946309;28;20804;-41
2021/09/13 00:55:53;;;;;;;3.97;3.67;;;16.20;77.40;;;;;;4948510;28;20469;-41
2021/09/13 00:58:24;;;;;;;3.70;3.40;;;16.10;77.50;;;;;;4950961;28;20834;-41
2021/09/13 01:00:51;;;;;;;4.10;3.43;;;16.10;77.50;;;;;;4949078;28;20569;-41
2021/09/13 01:03:18;;;;;;;4.43;3.60;;;16.10;77.50;;;;;;4949566;29;20492;-42
2021/09/13 01:05:47;;;;;;;3.67;3.17;;;16.10;77.40;;;;;;4947598;29;20832;-42
2021/09/13 01:08:14;;;;;;;3.87;3.47;;;16.10;77.20;;;;;;4949224;28;20459;-42
2021/09/13 01:10:40;;;;;;;4.30;3.90;;;16.10;77.10;;;;;;4943309;28;20460;-42
2021/09/13 01:13:07;;;;;;;5.27;3.70;;;16.10;77.10;;;;;;4950530;28;20467;-42
2021/09/13 01:15:38;;;;;;;3.80;3.40;;;16.00;77.20;;;;;;4944826;28;20482;-42
2021/09/13 01:18:06;;;;;;;4.37;3.40;;;16.00;77.60;;;;;;4949019;29;20542;-42
2021/09/13 01:20:34;;;;;;;4.70;3.90;;;16.00;77.60;;;;;;4945450;28;20455;-42
2021/09/13 01:23:23;;;;;;;4.30;3.57;;;16.00;77.70;;;;;;4950275;28;20471;-42
2021/09/13 01:25:50;;;;;;;3.80;3.50;;;16.00;77.60;;;;;;4937505;28;20463;-42
2021/09/13 01:28:17;;;;;;;4.90;3.90;;;15.90;77.60;;;;;;4947821;28;20945;-42
2021/09/13 01:30:43;;;;;;;5.77;4.07;;;15.90;77.70;;;;;;4945514;28;20448;-42
2021/09/13 01:33:11;;;;;;;5.40;3.67;;;15.80;78.10;;;;;;4943206;28;20476;-41
2021/09/13 01:35:38;;;;;;;4.20;3.70;;;15.80;78.30;;;;;;4947799;28;20518;-41
2021/09/13 01:38:05;;;;;;;4.53;3.93;;;15.80;78.50;;;;;;4951700;28;20454;-41
2021/09/13 01:40:32;;;;;;;5.37;4.10;;;15.80;78.70;;;;;;4947255;28;20467;-41
2021/09/13 01:43:01;;;;;;;3.83;3.47;;;15.80;78.80;;;;;;4947879;28;20491;-41
2021/09/13 01:45:28;;;;;;;5.80;4.10;;;15.70;78.80;;;;;;4946888;28;20493;-41
2021/09/13 01:47:55;;;;;;;5.70;5.03;;;15.70;79.00;;;;;;4948554;28;20451;-41
2021/09/13 01:50:25;;;;;;;5.10;4.53;;;15.70;79.20;;;;;;4948169;29;20451;-41
2021/09/13 01:52:51;;;;;;;4.43;4.03;;;15.70;79.30;;;;;;4949360;28;20451;-41
2021/09/13 01:55:18;;;;;;;4.70;3.93;;;15.60;79.50;;;;;;4946935;28;20836;-42
2021/09/13 01:57:45;;;;;;;6.00;5.50;;;15.60;79.50;;;;;;4941909;28;20455;-42
2021/09/13 02:00:12;;;;;;;3.80;3.50;;;15.70;79.60;;;;;;4950034;28;20443;-42
2021/09/13 02:02:39;;;;;;;3.57;3.27;;;15.70;79.40;;;;;;4951058;29;20467;-42
2021/09/13 02:05:07;;;;;;;4.07;3.70;;;15.70;79.40;;;;;;4949106;28;20942;-42
2021/09/13 02:07:33;;;;;;;7.53;3.73;;;15.70;79.50;;;;;;4950481;28;20450;-42
2021/09/13 02:10:00;;;;;;;4.33;3.93;;;15.60;79.60;;;;;;4948237;28;20545;-42
2021/09/13 02:12:27;;;;;;;4.77;4.37;;;15.60;79.80;;;;;;4948035;28;20439;-42
2021/09/13 02:14:53;;;;;;;6.47;5.30;;;15.60;80.00;;;;;;4948641;28;20969;-42
2021/09/13 02:17:20;;;;;;;9.07;5.67;;;15.50;80.10;;;;;;4941495;28;20896;-42
2021/09/13 02:19:48;;;;;;;4.60;4.03;;;15.50;80.20;;;;;;4949256;28;20938;-42
2021/09/13 02:22:16;;;;;;;4.27;3.87;;;15.50;80.10;;;;;;4947817;28;20476;-42
2021/09/13 02:24:43;;;;;;;4.63;4.23;;;15.60;79.90;;;;;;4949438;28;21509;-42
2021/09/13 02:27:10;;;;;;;5.97;3.60;;;15.50;79.90;;;;;;4951165;28;20455;-42
2021/09/13 02:29:36;;;;;;;4.23;3.83;;;15.50;79.90;;;;;;4946968;28;20467;-42
2021/09/13 02:32:03;;;;;;;5.20;4.10;;;15.50;79.90;;;;;;4949357;28;20455;-42
2021/09/13 02:34:30;;;;;;;5.30;3.57;;;15.50;79.90;;;;;;4951088;28;20455;-42
2021/09/13 02:36:59;;;;;;;4.23;3.90;;;15.50;79.80;;;;;;4944738;28;20454;-42
2021/09/13 02:39:26;;;;;;;5.30;4.80;;;15.40;79.80;;;;;;4949163;28;20522;-42
2021/09/13 02:41:53;;;;;;;5.17;4.30;;;15.40;79.90;;;;;;4943902;28;20518;-42
2021/09/13 02:44:19;;;;;;;4.90;4.50;;;15.40;79.90;;;;;;4949899;28;20517;-42
2021/09/13 02:46:46;;;;;;;4.40;4.00;;;15.40;79.80;;;;;;4948955;28;20451;-42
2021/09/13 02:49:13;;;;;;;5.07;4.50;;;15.40;79.80;;;;;;4950736;28;20975;-42
2021/09/13 02:51:40;;;;;;;6.57;4.50;;;15.30;79.80;;;;;;4950496;28;20802;-42
2021/09/13 02:54:07;;;;;;;5.47;4.80;;;15.30;79.70;;;;;;4950643;28;20821;-42
2021/09/13 02:56:33;;;;;;;4.93;4.53;;;15.30;79.80;;;;;;4951639;28;20462;-42
2021/09/13 02:59:00;;;;;;;4.80;4.30;;;15.20;79.80;;;;;;4951090;28;20470;-42
2021/09/13 03:01:27;;;;;;;4.57;4.13;;;15.20;80.00;;;;;;4951688;28;20461;-42
2021/09/13 03:03:54;;;;;;;5.47;4.40;;;15.20;79.90;;;;;;4951365;28;21157;-42
2021/09/13 03:06:21;;;;;;;6.27;4.10;;;15.20;79.80;;;;;;4955262;28;20451;-42
2021/09/13 03:08:47;;;;;;;4.43;4.03;;;15.20;79.50;;;;;;4950324;28;20976;-42
2021/09/13 03:11:14;;;;;;;5.70;4.23;;;15.20;79.50;;;;;;4948739;28;20447;-41
2021/09/13 03:13:41;;;;;;;5.53;4.30;;;15.20;79.60;;;;;;4952239;28;20458;-42
2021/09/13 03:16:07;;;;;;;5.63;5.03;;;15.10;79.80;;;;;;4951457;28;20974;-42
2021/09/13 03:18:36;;;;;;;5.97;4.53;;;15.10;79.80;;;;;;4950559;29;20455;-42
2021/09/13 03:21:03;;;;;;;4.17;3.80;;;15.00;80.00;;;;;;4950962;28;20677;-42
2021/09/13 03:23:29;;;;;;;4.93;3.90;;;15.00;80.00;;;;;;4948167;28;20461;-42
2021/09/13 03:25:56;;;;;;;4.50;3.90;;;15.00;79.90;;;;;;4950477;28;22957;-42
2021/09/13 03:28:23;;;;;;;5.47;4.40;;;15.00;79.80;;;;;;4943838;28;20479;-42
2021/09/13 03:30:51;;;;;;;7.70;4.47;;;15.00;80.00;;;;;;4950948;28;20983;-41
2021/09/13 03:33:17;;;;;;;4.93;4.40;;;15.00;79.90;;;;;;4951483;28;20451;-41
2021/09/13 03:35:44;;;;;;;4.90;4.17;;;15.00;80.00;;;;;;4950543;28;20466;-41
2021/09/13 03:38:11;;;;;;;5.00;4.60;;;15.00;80.00;;;;;;4950931;28;20456;-41
2021/09/13 03:40:40;;;;;;;5.47;4.53;;;15.00;80.10;;;;;;4952201;28;20473;-41
2021/09/13 03:43:07;;;;;;;5.83;4.53;;;15.00;80.20;;;;;;4950699;28;20467;-42
2021/09/13 03:45:33;;;;;;;4.97;4.20;;;15.00;80.20;;;;;;4953455;28;20486;-41
2021/09/13 03:48:00;;;;;;;5.33;4.40;;;15.00;80.20;;;;;;4948321;28;20467;-41
2021/09/13 03:50:27;;;;;;;9.63;4.83;;;15.00;80.30;;;;;;4947798;28;20864;-41
2021/09/13 03:52:54;;;;;;;5.23;4.73;;;15.00;80.40;;;;;;4950335;28;20455;-41
2021/09/13 03:55:20;;;;;;;5.63;4.60;;;14.90;80.40;;;;;;4947091;28;20485;-41
2021/09/13 03:57:47;;;;;;;4.30;3.90;;;14.90;80.60;;;;;;4951697;28;20522;-42
2021/09/13 04:00:15;;;;;;;4.90;4.40;;;14.90;80.70;;;;;;4950492;28;20447;-42
2021/09/13 04:02:47;;;;;;;4.67;4.20;;;14.80;80.80;;;;;;4951095;28;20456;-42
2021/09/13 04:05:18;;;;;;;4.93;4.43;;;14.80;80.90;;;;;;4950655;28;20853;-42
2021/09/13 04:13:03;;;;;;;6.07;4.60;;;14.80;80.70;;;;;;4946490;29;20850;-43
2021/09/13 04:15:30;;;;;;;8.93;5.70;;;14.70;80.70;;;;;;4947240;28;20455;-42
2021/09/13 04:17:57;;;;;;;5.87;5.03;;;14.70;80.70;;;;;;4952647;28;20802;-42
2021/09/13 04:20:24;;;;;;;5.60;4.50;;;14.70;80.90;;;;;;4952091;28;20464;-42
2021/09/13 04:22:51;;;;;;;5.87;4.97;;;14.70;81.00;;;;;;4952401;28;20971;-42
2021/09/13 04:25:18;;;;;;;4.60;4.20;;;14.60;80.90;;;;;;4948376;28;20489;-42
2021/09/13 04:27:44;;;;;;;5.20;4.70;;;14.60;81.00;;;;;;4948878;28;20446;-42
2021/09/13 04:30:11;;;;;;;6.67;4.30;;;14.60;81.00;;;;;;4948262;28;20506;-42
2021/09/13 04:32:38;;;;;;;4.90;4.50;;;14.60;80.90;;;;;;4946945;29;20533;-42
2021/09/13 04:35:09;;;;;;;6.20;5.53;;;14.60;80.90;;;;;;4947061;28;21336;-42
2021/09/13 04:37:36;;;;;;;5.80;5.17;;;14.60;80.80;;;;;;4948694;28;20454;-42
2021/09/13 04:40:03;;;;;;;6.40;4.80;;;14.60;80.80;;;;;;4950842;29;20451;-42
2021/09/13 04:42:30;;;;;;;7.10;4.73;;;14.60;80.70;;;;;;4950893;28;20447;-42
2021/09/13 04:44:57;;;;;;;5.77;4.47;;;14.50;81.00;;;;;;4945548;28;20495;-42
2021/09/13 04:47:23;;;;;;;5.27;4.40;;;14.50;81.10;;;;;;4948188;28;20448;-42
2021/09/13 04:49:50;;;;;;;5.77;5.27;;;14.50;80.90;;;;;;4948545;28;20459;-42
2021/09/13 04:52:17;;;;;;;6.10;5.30;;;14.50;81.10;;;;;;4950678;28;20454;-42
2021/09/13 04:54:43;;;;;;;5.60;4.37;;;14.50;81.20;;;;;;4945078;28;20827;-42
2021/09/13 04:57:10;;;;;;;5.47;4.97;;;14.50;81.20;;;;;;4946713;28;20464;-42
2021/09/13 04:59:37;;;;;;;5.57;4.50;;;14.50;81.20;;;;;;4945301;28;20451;-42
2021/09/13 05:02:03;;;;;;;5.30;4.80;;;14.50;81.00;;;;;;4950069;28;20443;-42
2021/09/13 05:04:30;;;;;;;5.23;4.70;;;14.60;81.00;;;;;;4951654;28;20995;-42
2021/09/13 05:06:57;;;;;;;6.60;4.90;;;14.60;81.10;;;;;;4948436;28;20450;-42
2021/09/13 05:09:26;;;;;;;5.77;4.80;;;14.60;81.00;;;;;;4946427;28;20452;-42
2021/09/13 05:11:53;;;;;;;5.00;4.50;;;14.60;81.10;;;;;;4947222;28;20470;-42
2021/09/13 05:14:19;;;;;;;5.57;4.63;;;14.50;81.40;;;;;;4947947;28;20812;-42
2021/09/13 05:16:46;;;;;;;6.97;5.30;;;14.60;81.30;;;;;;4948659;28;20455;-42
2021/09/13 05:19:13;;;;;;;5.57;5.00;;;14.60;81.20;;;;;;4945461;28;20874;-42
2021/09/13 05:21:41;;;;;;;6.70;4.90;;;14.60;81.30;;;;;;4948633;28;20459;-42
2021/09/13 05:24:08;;;;;;;11.67;4.70;;;14.50;81.50;;;;;;4944446;28;20456;-42
2021/09/13 05:26:34;;;;;;;6.33;4.47;;;14.50;81.60;;;;;;4951234;28;20495;-42
2021/09/13 05:29:01;;;;;;;6.00;5.13;;;14.50;81.70;;;;;;4948037;28;20468;-42
2021/09/13 05:31:28;;;;;;;5.23;4.70;;;14.50;81.70;;;;;;4952383;28;20447;-42
2021/09/13 05:33:55;;;;;;;9.80;5.03;;;14.50;81.70;;;;;;4948954;28;20599;-42
2021/09/13 05:36:22;;;;;;;5.40;4.60;;;14.50;81.70;;;;;;4947922;29;20948;-42
2021/09/13 05:38:49;;;;;;;6.23;5.23;;;14.50;81.70;;;;;;4950371;28;20482;-42
2021/09/13 05:41:16;;;;;;;5.40;4.60;;;14.50;81.70;;;;;;4941361;28;20455;-41
2021/09/13 05:43:43;;;;;;;5.50;4.50;;;14.60;81.70;;;;;;4949439;28;20462;-41
2021/09/13 05:46:10;;;;;;;4.83;4.43;;;14.60;81.80;;;;;;4946554;28;20487;-41
2021/09/13 05:48:36;;;;;;;5.23;4.70;;;14.60;81.90;;;;;;4947248;28;20770;-41
2021/09/13 05:51:03;;;;;;;7.80;5.13;;;14.60;82.00;;;;;;4948843;28;20452;-41
2021/09/13 05:53:30;;;;;;;5.67;5.00;;;14.70;82.10;;;;;;4960326;28;20526;-41
2021/09/13 05:55:57;;;;;;;6.00;5.43;;;14.70;82.20;;;;;;4944563;28;20474;-41
2021/09/13 05:58:23;;;;;;;6.77;5.13;;;14.70;82.20;;;;;;4949617;28;20455;-41
2021/09/13 06:00:53;;;;;;;5.77;5.23;;;14.80;82.30;;;;;;4943629;28;20478;-41
2021/09/13 06:03:20;;;;;;;6.90;5.40;;;14.80;82.30;;;;;;4947245;28;20965;-41
2021/09/13 06:05:50;;;;;;;6.30;4.70;;;14.90;82.40;;;;;;4943906;28;20490;-41
2021/09/13 06:08:16;;;;;;;5.70;4.50;;;14.90;82.40;;;;;;4950771;28;20439;-42
2021/09/13 06:10:43;;;;;;;7.03;5.20;;;14.90;82.50;;;;;;4945873;28;20973;-42
2021/09/13 06:13:12;;;;;;;6.63;5.83;;;15.00;82.60;;;;;;4949553;28;20473;-42
2021/09/13 06:15:39;;;;;;;6.23;4.80;;;15.00;82.50;;;;;;4949052;28;20455;-42
2021/09/13 06:18:06;;;;;;;7.43;5.47;;;15.10;82.50;;;;;;4946390;29;20871;-42
2021/09/13 06:20:33;;;;;;;8.70;6.90;;;15.10;82.50;;;;;;4961504;28;20463;-42
2021/09/13 06:23:00;;;;;;;10.37;7.03;;;15.10;82.30;;;;;;4944730;28;20455;-42
2021/09/13 06:25:27;;;;;;;10.40;7.07;;;15.10;82.10;;;;;;4944352;29;20491;-42
2021/09/13 06:27:54;;;;;;;11.03;7.13;;;15.20;82.00;;;;;;4946160;28;20961;-42
2021/09/13 06:30:21;;;;;;;10.87;6.63;;;15.20;81.80;;;;;;4947179;28;20825;-42
2021/09/13 06:32:48;;;;;;;11.70;7.20;;;15.20;81.60;;;;;;4947205;28;20450;-42
2021/09/13 06:35:17;;;;;;;9.50;6.07;;;15.30;81.60;;;;;;4947418;28;20468;-42
2021/09/13 06:37:43;;;;;;;8.27;5.80;;;15.30;81.50;;;;;;4945447;28;20455;-42
2021/09/13 06:40:10;;;;;;;8.57;6.30;;;15.30;81.40;;;;;;4948956;28;20459;-42
2021/09/13 06:42:38;;;;;;;6.63;5.90;;;15.40;81.50;;;;;;4945388;28;20534;-42
2021/09/13 06:45:19;;;;;;;8.00;6.20;;;15.40;81.50;;;;;;4946821;28;20508;-42
2021/09/13 06:47:46;;;;;;;6.93;6.23;;;15.50;81.40;;;;;;4946842;28;20459;-42
2021/09/13 06:50:23;;;;;;;6.93;6.33;;;15.50;81.40;;;;;;4948036;28;20459;-42
2021/09/13 06:52:51;;;;;;;8.60;6.87;;;15.60;81.50;;;;;;4949545;28;20447;-42
2021/09/13 06:55:18;;;;;;;8.07;6.07;;;15.60;81.60;;;;;;4934128;28;20546;-42
2021/09/13 06:57:46;;;;;;;6.23;5.63;;;15.60;81.70;;;;;;4949820;28;20454;-42
2021/09/13 07:00:16;;;;;;;9.27;6.43;;;15.70;81.80;;;;;;4949261;28;20538;-42
2021/09/13 07:02:45;;;;;;;7.17;6.47;;;15.70;81.70;;;;;;4947783;28;20467;-42
2021/09/13 07:05:12;;;;;;;13.20;6.10;;;15.80;81.80;;;;;;4946086;28;20862;-42
2021/09/13 07:07:41;;;;;;;9.63;6.27;;;15.90;81.30;;;;;;4946603;28;20519;-42
2021/09/13 07:10:10;;;;;;;7.80;5.57;;;15.90;81.20;;;;;;4946098;28;20965;-42
2021/09/13 07:12:37;;;;;;;8.77;5.87;;;15.90;81.20;;;;;;4946246;28;20454;-43
2021/09/13 07:15:05;;;;;;;7.93;6.63;;;16.00;81.30;;;;;;4943649;28;20639;-42
2021/09/13 07:17:31;;;;;;;8.90;6.57;;;16.00;81.20;;;;;;4945521;28;20455;-42
2021/09/13 07:19:58;;;;;;;7.40;5.43;;;16.20;80.90;;;;;;4948886;28;20455;-42
2021/09/13 07:22:25;;;;;;;8.03;7.20;;;16.30;80.70;;;;;;4945722;28;20474;-42
2021/09/13 07:24:52;;;;;;;8.50;6.77;;;16.40;80.40;;;;;;4948006;28;20466;-42
2021/09/13 07:27:19;;;;;;;9.50;6.60;;;16.50;79.80;;;;;;4947349;28;20953;-42
2021/09/13 07:29:45;;;;;;;9.03;6.33;;;16.50;79.70;;;;;;4948743;28;20451;-42
2021/09/13 07:32:12;;;;;;;7.03;6.37;;;16.60;79.40;;;;;;4946033;28;20467;-42
2021/09/13 07:34:39;;;;;;;7.63;6.90;;;16.70;79.10;;;;;;4949529;28;20444;-42
2021/09/13 07:37:07;;;;;;;7.03;6.10;;;16.90;79.10;;;;;;4945301;28;20452;-42
2021/09/13 07:39:34;;;;;;;7.27;6.13;;;17.00;78.80;;;;;;4950319;28;20459;-42
2021/09/13 07:42:01;;;;;;;8.40;6.90;;;17.20;78.50;;;;;;4960647;28;20804;-42
2021/09/13 07:44:27;;;;;;;14.63;6.80;;;17.40;78.40;;;;;;4951697;28;20459;-42
2021/09/13 07:46:54;;;;;;;7.80;7.00;;;17.60;77.90;;;;;;4950889;28;20498;-42
2021/09/13 07:49:21;;;;;;;11.13;7.23;;;17.70;77.40;;;;;;4953939;28;20526;-42
2021/09/13 07:51:48;;;;;;;8.13;7.07;;;17.90;76.90;;;;;;4948183;28;20459;-42
2021/09/13 07:54:15;;;;;;;7.90;7.07;;;18.10;76.30;;;;;;4951553;28;20445;-42
2021/09/13 07:56:42;;;;;;;8.57;7.77;;;18.30;76.10;;;;;;4948443;28;20481;-42
2021/09/13 07:59:10;;;;;;;10.07;7.57;;;18.50;75.40;;;;;;4952353;28;20543;-42
2021/09/13 08:01:37;;;;;;;7.90;7.10;;;18.60;74.80;;;;;;4950071;29;20451;-42
2021/09/13 08:04:05;;;;;;;9.30;7.70;;;18.80;74.50;;;;;;4949628;28;20463;-42
2021/09/13 08:06:32;;;;;;;8.63;7.30;;;19.10;73.60;;;;;;4950352;28;20573;-42
2021/09/13 08:08:59;;;;;;;11.40;8.23;;;19.30;72.90;;;;;;4946173;28;20506;-42
2021/09/13 08:11:26;;;;;;;8.03;7.23;;;19.50;72.40;;;;;;4948052;29;20456;-42
2021/09/13 08:13:53;;;;;;;8.80;7.90;;;19.70;71.10;;;;;;4950397;28;20486;-42
2021/09/13 08:16:21;;;;;;;9.50;7.43;;;20.00;70.20;;;;;;4954704;28;20828;-42
2021/09/13 08:18:48;;;;;;;9.20;6.80;;;20.10;69.80;;;;;;4945969;28;20538;-42
2021/09/13 08:21:15;;;;;;;6.60;5.63;;;20.30;68.60;;;;;;4945443;28;20473;-42
2021/09/13 08:23:42;;;;;;;8.37;6.77;;;20.40;68.50;;;;;;4947704;28;20976;-42
2021/09/13 08:26:08;;;;;;;7.10;6.40;;;20.60;68.20;;;;;;4947568;28;20545;-42
2021/09/13 08:28:37;;;;;;;10.00;7.73;;;20.70;66.60;;;;;;4952937;28;20443;-42
2021/09/13 08:31:04;;;;;;;10.60;7.20;;;20.80;65.90;;;;;;4948109;28;20451;-42
2021/09/13 08:33:31;;;;;;;8.07;7.13;;;21.00;65.60;;;;;;4946973;28;20451;-42
2021/09/13 08:35:57;;;;;;;7.70;7.00;;;21.10;65.10;;;;;;4949856;28;20502;-42
2021/09/13 08:38:24;;;;;;;8.30;6.63;;;21.30;65.00;;;;;;4949626;28;20453;-42
2021/09/13 08:40:52;;;;;;;9.30;7.17;;;21.50;64.90;;;;;;4951964;29;20455;-42
2021/09/13 08:43:19;;;;;;;10.67;7.60;;;21.70;64.60;;;;;;4945701;28;20462;-42
2021/09/13 08:46:01;;;;;;;9.60;7.77;;;22.00;64.00;;;;;;4946729;28;20489;-42
2021/09/13 08:48:48;;;;;;;10.83;7.30;;;22.20;63.20;;;;;;4949587;28;20453;-42
2021/09/13 08:51:29;;;;;;;8.97;7.10;;;22.30;63.00;;;;;;4949018;28;20805;-42
2021/09/13 08:54:03;;;;;;;8.37;7.30;;;22.40;63.00;;;;;;4949390;28;20976;-42
2021/09/13 08:56:53;;;;;;;8.60;7.80;;;22.60;62.50;;;;;;4949301;29;20446;-42
2021/09/13 08:59:24;;;;;;;10.40;8.20;;;22.80;61.90;;;;;;4939582;28;20447;-42
2021/09/13 09:01:51;;;;;;;10.53;8.00;;;22.80;61.40;;;;;;4946239;28;20466;-42
2021/09/13 09:04:19;;;;;;;10.57;8.27;;;22.80;61.60;;;;;;4946662;28;20887;-42
2021/09/13 09:06:48;;;;;;;8.50;7.23;;;22.90;61.60;;;;;;4948849;28;21008;-42
2021/09/13 09:09:20;;;;;;;8.63;7.83;;;22.90;61.70;;;;;;4944985;29;20541;-42
2021/09/13 09:12:02;;;;;;;11.83;8.47;;;22.80;61.20;;;;;;4950962;28;20447;-42
2021/09/13 09:14:48;;;;;;;9.63;8.30;;;22.80;61.40;;;;;;4951576;28;20996;-42
2021/09/13 09:17:27;;;;;;;8.83;7.90;;;22.70;60.80;;;;;;4946601;28;20501;-42
2021/09/13 09:20:01;;;;;;;9.03;7.67;;;22.70;61.00;;;;;;4946575;28;20810;-42
2021/09/13 09:22:30;;;;;;;10.67;9.10;;;22.80;61.40;;;;;;4949302;28;20461;-42
2021/09/13 09:24:58;;;;;;;12.17;8.60;;;22.80;60.70;;;;;;4948751;28;20489;-42
2021/09/13 09:27:26;;;;;;;8.77;7.97;;;22.90;60.60;;;;;;4945750;28;20497;-42
2021/09/13 09:29:54;;;;;;;10.60;8.40;;;23.00;60.80;;;;;;4947665;28;20453;-43
2021/09/13 09:32:24;;;;;;;10.67;8.23;;;23.00;60.80;;;;;;4948507;28;20560;-42
2021/09/13 09:34:55;;;;;;;7.90;7.10;;;23.00;60.70;;;;;;4960614;28;20462;-42
2021/09/13 09:37:25;;;;;;;9.67;8.70;;;22.90;61.20;;;;;;4952361;28;20445;-43
2021/09/13 09:39:58;;;;;;;8.23;7.40;;;22.90;61.40;;;;;;4952702;28;20496;-42
2021/09/13 09:42:38;;;;;;;9.93;7.00;;;22.80;61.30;;;;;;4949622;28;20456;-42
2021/09/13 09:45:17;;;;;;;9.30;7.63;;;22.80;61.40;;;;;;4944423;28;20546;-42
2021/09/13 09:47:44;;;;;;;10.80;7.80;;;22.90;61.30;;;;;;4952734;28;20489;-42
2021/09/13 09:50:11;;;;;;;6.70;6.10;;;22.90;61.00;;;;;;4947384;28;20438;-42
2021/09/13 09:52:42;;;;;;;7.50;6.40;;;22.90;61.20;;;;;;4949657;28;20448;-43
2021/09/13 09:55:17;;;;;;;8.77;7.23;;;22.90;60.50;;;;;;4944383;29;20461;-43
2021/09/13 09:58:04;;;;;;;9.63;7.07;;;22.90;60.00;;;;;;4951173;28;20450;-42
2021/09/13 10:00:32;;;;;;;10.53;6.53;;;22.90;60.40;;;;;;4947055;28;20466;-42
2021/09/13 10:02:59;;;;;;;8.40;6.37;;;23.00;60.80;;;;;;4949717;28;20466;-42
2021/09/13 10:05:28;;;;;;;7.73;6.93;;;23.20;60.30;;;;;;4947770;28;20439;-43
2021/09/13 10:07:56;;;;;;;9.13;6.43;;;23.20;59.00;;;;;;4949255;28;20490;-42
2021/09/13 10:10:29;;;;;;;8.70;6.00;;;23.40;58.70;;;;;;4947709;28;20451;-42
2021/09/13 10:13:01;;;;;;;6.43;4.60;;;23.60;58.20;;;;;;4948999;29;20509;-42
2021/09/13 10:15:28;;;;;;;6.00;5.40;;;23.80;58.20;;;;;;4946665;28;21413;-42
2021/09/13 10:17:59;;;;;;;6.53;5.90;;;24.00;57.50;;;;;;4945829;28;20840;-42
2021/09/13 10:20:26;;;;;;;10.63;5.57;;;24.30;56.50;;;;;;4945485;28;20451;-42
2021/09/13 10:22:55;;;;;;;8.17;5.30;;;24.60;54.90;;;;;;4951465;28;20968;-42
2021/09/13 10:25:29;;;;;;;5.33;4.70;;;25.00;54.70;;;;;;4947342;28;20462;-42
2021/09/13 10:28:04;;;;;;;5.57;5.07;;;25.30;52.60;;;;;;4946363;28;20498;-43
2021/09/13 10:30:47;;;;;;;6.00;4.57;;;25.90;52.30;;;;;;4950254;28;20468;-43
2021/09/13 10:33:17;;;;;;;5.93;4.70;;;26.40;51.30;;;;;;4949243;28;20462;-43
2021/09/13 10:35:59;;;;;;;4.57;4.17;;;26.90;48.80;;;;;;4945729;29;20454;-43
2021/09/13 10:38:46;;;;;;;4.37;4.07;;;27.40;47.60;;;;;;4948431;28;20475;-43
2021/09/13 10:41:51;;;;;;;4.23;3.83;;;27.70;46.40;;;;;;4944592;28;20461;-43
2021/09/13 10:44:33;;;;;;;4.07;3.67;;;28.10;46.90;;;;;;4948707;28;20230;-43
2021/09/13 10:47:04;;;;;;;5.30;3.97;;;28.20;46.70;;;;;;4949448;28;20573;-43
2021/09/13 10:49:32;;;;;;;7.50;3.70;;;28.20;45.60;;;;;;4948776;28;20211;-43
2021/09/13 10:52:26;;;;;;;3.80;3.10;;;28.20;45.10;;;;;;4944661;28;20218;-44
2021/09/13 10:55:17;;;;;;;4.90;3.43;;;28.10;45.20;;;;;;4945986;28;20203;-43
2021/09/13 10:58:09;;;;;;;4.53;3.40;;;28.00;45.40;;;;;;4945480;28;20210;-43
2021/09/13 11:00:44;;;;;;;3.57;3.30;;;27.80;45.60;;;;;;4943059;28;20207;-43
2021/09/13 11:03:28;;;;;;;5.33;3.50;;;27.60;45.90;;;;;;4941315;28;20476;-43
2021/09/13 11:06:06;;;;;;;3.07;2.43;;;27.30;45.80;;;;;;4949252;28;20602;-43
2021/09/13 11:08:55;;;;;;;3.97;2.50;;;27.00;46.40;;;;;;4945552;28;20488;-43
2021/09/13 11:11:31;;;;;;;3.73;3.43;;;26.80;46.80;;;;;;4952318;28;20286;-43
2021/09/13 11:14:05;;;;;;;3.10;2.80;;;26.60;46.50;;;;;;4963150;28;20954;-43
2021/09/13 11:16:37;;;;;;;2.83;2.63;;;26.50;47.30;;;;;;4951412;28;20462;-43
2021/09/13 11:19:10;;;;;;;6.13;3.37;;;26.40;47.80;;;;;;4948795;28;20466;-48
2021/09/13 11:21:47;;;;;;;3.90;2.80;;;26.10;48.10;;;;;;4960795;28;20471;-43
2021/09/13 11:24:18;;;;;;;5.27;3.00;;;26.00;48.60;;;;;;4949362;28;20461;-43
2021/09/13 11:27:05;;;;;;;2.80;2.43;;;25.80;48.90;;;;;;4950659;28;20494;-43
2021/09/13 11:29:34;;;;;;;4.30;3.07;;;25.70;48.90;;;;;;4951246;29;20458;-43
2021/09/13 11:32:09;;;;;;;4.00;3.53;;;25.50;49.20;;;;;;4948019;28;20472;-43
2021/09/13 11:34:37;;;;;;;3.50;3.10;;;25.40;49.80;;;;;;4950608;28;20450;-43
2021/09/13 11:37:14;;;;;;;4.27;3.37;;;25.30;50.10;;;;;;4950003;28;20446;-43
2021/09/13 11:40:02;;;;;;;5.43;3.63;;;25.10;50.30;;;;;;4948108;28;21008;-43
2021/09/13 11:42:34;;;;;;;4.00;3.60;;;25.00;51.60;;;;;;4952568;28;20442;-43
2021/09/13 11:45:06;;;;;;;3.73;3.33;;;24.80;52.00;;;;;;4948035;28;20468;-43
2021/09/13 11:47:50;;;;;;;4.07;3.20;;;24.60;51.80;;;;;;4948792;28;20568;-43
2021/09/13 11:50:17;;;;;;;3.93;3.27;;;24.40;51.90;;;;;;4952483;28;20495;-43
2021/09/13 11:52:44;;;;;;;9.63;3.40;;;24.30;52.00;;;;;;4951094;28;20443;-43
2021/09/13 11:55:16;;;;;;;4.17;3.87;;;24.20;51.90;;;;;;4951596;28;20450;-41
2021/09/13 11:57:48;;;;;;;6.00;3.60;;;24.10;52.10;;;;;;4948398;28;20546;-42
2021/09/13 12:00:23;;;;;;;4.10;3.70;;;24.00;52.80;;;;;;4950868;28;20997;-41
2021/09/13 12:02:57;;;;;;;4.40;3.97;;;23.90;52.80;;;;;;4950963;28;20809;-41
2021/09/13 12:05:28;;;;;;;5.93;4.07;;;23.80;53.40;;;;;;4950609;28;20474;-41
2021/09/13 12:07:56;;;;;;;5.80;4.53;;;23.80;53.70;;;;;;4952251;28;21024;-41
2021/09/13 12:10:26;;;;;;;4.07;3.67;;;23.80;53.70;;;;;;4948654;29;20443;-41
2021/09/13 12:12:56;;;;;;;3.93;2.90;;;23.70;53.70;;;;;;4948283;28;20542;-41
2021/09/13 12:15:30;;;;;;;5.10;4.30;;;23.70;54.00;;;;;;4950837;28;20483;-41
2021/09/13 12:17:57;;;;;;;6.83;3.33;;;23.70;53.90;;;;;;4950976;28;20458;-41
2021/09/13 12:20:29;;;;;;;5.73;3.90;;;23.70;53.90;;;;;;4950992;28;20442;-42
2021/09/13 12:23:03;;;;;;;5.17;3.60;;;23.70;54.30;;;;;;4949108;28;20484;-42
2021/09/13 12:25:37;;;;;;;4.37;3.57;;;23.70;54.20;;;;;;4951903;28;20457;-41
2021/09/13 12:28:05;;;;;;;4.33;3.93;;;23.70;54.90;;;;;;4947064;28;20496;-41
2021/09/13 12:30:37;;;;;;;5.20;3.90;;;23.70;55.00;;;;;;4953002;28;20435;-41
2021/09/13 12:33:09;;;;;;;4.53;3.63;;;23.70;54.80;;;;;;4946495;28;20459;-41
2021/09/13 12:35:47;;;;;;;6.23;2.90;;;23.70;54.80;;;;;;4946986;29;20480;-41
2021/09/13 12:38:15;;;;;;;4.10;3.57;;;23.70;54.50;;;;;;4949297;29;20443;-42
2021/09/13 12:40:49;;;;;;;5.13;4.73;;;23.70;55.80;;;;;;4952192;28;20858;-42
2021/09/13 12:43:19;;;;;;;4.20;3.20;;;23.80;54.00;;;;;;4951487;28;20536;-42
2021/09/13 12:45:45;;;;;;;4.17;3.50;;;23.80;54.20;;;;;;4951529;28;20459;-45
2021/09/13 12:48:23;;;;;;;3.50;3.20;;;23.80;54.90;;;;;;4949983;28;20502;-42
2021/09/13 12:50:53;;;;;;;4.03;3.73;;;23.80;54.60;;;;;;4949700;28;20442;-42
2021/09/13 12:53:30;;;;;;;3.83;3.50;;;23.80;54.30;;;;;;4942805;29;20466;-42
2021/09/13 12:56:00;;;;;;;7.30;4.13;;;23.80;53.80;;;;;;4949532;28;20460;-42
2021/09/13 12:58:28;;;;;;;4.13;3.50;;;23.90;53.50;;;;;;4948356;29;20478;-42
2021/09/13 13:00:56;;;;;;;4.37;3.97;;;23.80;53.20;;;;;;4951246;28;20463;-42
2021/09/13 13:03:27;;;;;;;3.73;3.13;;;23.80;53.30;;;;;;4950669;28;20462;-42